Aeroporto :
LOGIN :

Iscrizione | Disclaimer

   EN    FR    IT 

 










Sommario :    VFR   VFR Marginale   IFR   IFR Intensivo   IFR Molto Intensivo
Visibilità : 
Base nubi : 
>= 8 km
>= 3000ft
5 / 8 km
1000 / 3000 ft
1500m / 5 km
500 / 1000 ft
800 / 1500m
200 / 500 ft
< 800m
< 200 ft
Simboli :   Temporali  Nebbia  Neve Forte  Precipitazioni Forti  Vento > 20 kt
SIGMETs :   Varie  Temporali  Ghiacco  Turbolenza  Onda orograficha  Ceneri Vulcaniche







- Altitudine del aeroporto : 26 ft


ETNT - Wittmundhaven AB

ULTIMO METAR :
  • 142020Z 18005KT 9999 FEW100 SCT250 08/06 Q1026 BLU+

METARs OBSOLETI :
  • 142008Z 18005KT 9999 SCT100 SCT250 08/06 Q1026 BLU+FCST CANCEL
  • 141920Z 18006KT 9999 BKN100 BKN250 09/07 Q1026 BLU BLU
  • 141910Z 18005KT 9999 BKN100 SCT250 09/07 Q1026 BLU BLU
  • 141820Z 18007KT 9999 BKN110 SCT210 10/08 Q1026 BLU BLU

TAF AMD TAF ETNT
Valido dal 14 a 15 ore il 15 a 00 ore UTC


142010Z 1415/1424 21008KT 8000 NSW FEW015 BKN150
BECMG 1419/1421 18006KT 5000 BR FEW010 BKN120
TEMPO 1421/1424 16003KT 2000 MIFG FEW005 SCT120 CANCEL BY ETGL
Nessun NOTAM noto per questo aeroporto.



MetMap, La meteo Aeronautica in un colpo d'occhio ! - Copyright ORBIFLY Dicembre 2007 - Disclaimer

ORBIFLY MET'MAP TEAM :

Programmazione e sviluppo : Alexandra Zaïnal
Concezione e sviluppo : Baudouin d'Aumeries
Co-Programmazione e sviluppo : Marc-Olivier Méhu
Supporto tecnico e logistico : Manuel Goepfert
Aiuto per la traduzione : Arnaldo La Scala

Contatto : metmap@orbifly.com




FONTI E CREDITI :

   NOAA